createdAt,value
2023-01-27T00:01:24.024Z,99.20
2023-01-27T00:04:26.972Z,99.10
2023-01-27T00:07:29.141Z,99.20
2023-01-27T00:10:31.796Z,99.10
2023-01-27T00:13:33.892Z,99.00
2023-01-27T00:16:44.156Z,99.00
2023-01-27T00:19:46.193Z,98.90
2023-01-27T00:23:06.522Z,99.00
2023-01-27T00:26:11.134Z,99.00
2023-01-27T00:29:13.585Z,99.00
2023-01-27T00:32:34.600Z,99.10
2023-01-27T00:35:37.786Z,99.30
2023-01-27T00:38:44.078Z,99.20
2023-01-27T00:41:46.219Z,99.30
2023-01-27T00:45:07.130Z,99.30
2023-01-27T00:48:09.288Z,99.30
2023-01-27T00:51:12.511Z,99.40
2023-01-27T00:54:14.908Z,99.20
2023-01-27T00:57:17.307Z,99.20
2023-01-27T01:00:19.806Z,99.10
2023-01-27T01:03:22.939Z,99.20
2023-01-27T01:06:25.899Z,99.10
2023-01-27T01:09:28.322Z,99.10
2023-01-27T01:12:30.413Z,99.10
2023-01-27T01:15:36.089Z,99.10
2023-01-27T01:18:39.138Z,99.30
2023-01-27T01:21:41.190Z,99.30
2023-01-27T01:24:44.803Z,99.10
2023-01-27T01:27:49.061Z,99.10
2023-01-27T01:30:52.451Z,99.20
2023-01-27T01:33:54.545Z,99.10
2023-01-27T01:36:56.577Z,99.10
2023-01-27T01:39:59.584Z,99.10
2023-01-27T01:43:03.844Z,99.00
2023-01-27T01:46:08.467Z,99.00
2023-01-27T01:49:12.703Z,99.00
2023-01-27T01:52:19.872Z,98.90
2023-01-27T01:55:24.160Z,98.90
2023-01-27T01:58:28.228Z,98.80
2023-01-27T02:01:30.391Z,99.10
2023-01-27T02:04:42.655Z,99.10
2023-01-27T02:08:01.710Z,99.00
2023-01-27T02:11:03.929Z,99.00
2023-01-27T02:14:06.289Z,99.20
2023-01-27T02:17:09.328Z,99.00
2023-01-27T02:20:45.735Z,99.10
2023-01-27T02:23:57.071Z,99.20
2023-01-27T02:26:59.832Z,99.20
2023-01-27T02:30:01.913Z,99.10
2023-01-27T02:33:09.088Z,99.10
2023-01-27T02:36:15.117Z,99.00
2023-01-27T02:39:20.716Z,99.10
2023-01-27T02:42:22.932Z,99.00
2023-01-27T02:45:25.127Z,99.00
2023-01-27T02:48:29.591Z,99.10
2023-01-27T02:51:33.125Z,99.10
2023-01-27T02:54:37.260Z,99.10
2023-01-27T02:57:39.554Z,98.90
2023-01-27T03:00:41.884Z,99.00
2023-01-27T03:03:49.532Z,98.90
2023-01-27T03:06:51.654Z,99.00
2023-01-27T03:09:54.873Z,99.00
2023-01-27T03:12:56.923Z,98.90
2023-01-27T03:16:18.514Z,98.80
2023-01-27T03:19:20.543Z,98.60
2023-01-27T03:22:23.306Z,98.70
2023-01-27T03:25:25.547Z,98.70
2023-01-27T03:28:27.811Z,98.50
2023-01-27T03:31:30.002Z,98.40
2023-01-27T03:34:32.202Z,98.40
2023-01-27T03:37:52.917Z,98.20
2023-01-27T03:41:13.521Z,98.20
2023-01-27T03:44:33.959Z,98.00
2023-01-27T03:47:36.291Z,98.00
2023-01-27T03:50:38.713Z,98.00
2023-01-27T03:53:40.869Z,97.90
2023-01-27T03:56:43.520Z,97.90
2023-01-27T03:59:45.772Z,97.70
2023-01-27T04:03:06.302Z,97.60
2023-01-27T04:06:29.971Z,97.50
2023-01-27T04:09:34.716Z,97.40
2023-01-27T04:12:36.772Z,97.20
2023-01-27T04:15:38.786Z,97.20
2023-01-27T04:18:40.910Z,97.20
2023-01-27T04:21:43.979Z,97.10
2023-01-27T04:24:46.066Z,97.20
2023-01-27T04:27:48.272Z,97.10
2023-01-27T04:30:50.368Z,97.20
2023-01-27T04:33:52.400Z,97.00
2023-01-27T04:36:55.063Z,97.00
2023-01-27T04:39:57.175Z,96.80
2023-01-27T04:42:59.253Z,96.80
2023-01-27T04:46:01.351Z,96.70
2023-01-27T04:49:05.451Z,96.60
2023-01-27T04:52:07.487Z,96.50
2023-01-27T04:55:10.023Z,96.40
2023-01-27T04:58:14.222Z,96.20
2023-01-27T05:01:17.461Z,96.10
2023-01-27T05:04:19.879Z,95.90
2023-01-27T05:07:21.866Z,95.90
2023-01-27T05:10:23.898Z,95.90
2023-01-27T05:13:25.960Z,96.00
2023-01-27T05:16:28.068Z,95.90
2023-01-27T05:19:30.623Z,95.90
2023-01-27T05:22:32.736Z,96.10
2023-01-27T05:25:35.698Z,96.10
2023-01-27T05:28:39.088Z,96.10
2023-01-27T05:31:41.245Z,96.00
2023-01-27T05:34:43.271Z,96.00
2023-01-27T05:37:45.289Z,96.10
2023-01-27T05:40:47.361Z,96.20
2023-01-27T05:43:54.254Z,96.50
2023-01-27T05:46:57.322Z,96.20
2023-01-27T05:49:59.462Z,96.40
2023-01-27T05:53:01.708Z,96.50
2023-01-27T05:56:05.593Z,96.60
2023-01-27T05:59:08.088Z,96.50
2023-01-27T06:02:10.375Z,96.50
2023-01-27T06:05:12.721Z,96.50
2023-01-27T06:08:15.082Z,96.40
2023-01-27T06:11:20.055Z,96.50
2023-01-27T06:14:22.252Z,96.50
2023-01-27T06:17:24.610Z,96.50
2023-01-27T06:20:26.829Z,96.60
2023-01-27T06:23:29.728Z,96.50
2023-01-27T06:26:31.844Z,96.60
2023-01-27T06:29:34.084Z,96.60
2023-01-27T06:32:37.423Z,96.80
2023-01-27T06:35:41.594Z,96.90
2023-01-27T06:38:44.544Z,96.70
2023-01-27T06:41:46.797Z,96.70
2023-01-27T06:44:49.101Z,96.70
2023-01-27T06:48:00.221Z,96.90
2023-01-27T06:51:02.464Z,96.90
2023-01-27T06:54:05.006Z,97.00
2023-01-27T06:57:10.044Z,97.00
2023-01-27T07:00:12.708Z,96.90
2023-01-27T07:06:16.357Z,97.20
2023-01-27T07:09:18.528Z,97.10
2023-01-27T07:12:22.747Z,97.20
2023-01-27T07:15:24.812Z,97.20
2023-01-27T07:18:26.920Z,97.20
2023-01-27T07:21:29.029Z,97.20
2023-01-27T07:24:31.166Z,97.40
2023-01-27T07:27:33.238Z,97.30
2023-01-27T07:30:35.510Z,97.40
2023-01-27T07:33:37.637Z,97.20
2023-01-27T07:36:39.721Z,97.10
2023-01-27T07:39:43.311Z,97.30
2023-01-27T07:42:45.629Z,97.20
2023-01-27T07:45:49.300Z,97.30
2023-01-27T07:48:51.513Z,97.30
2023-01-27T07:51:54.888Z,97.30
2023-01-27T07:54:56.978Z,97.30
2023-01-27T07:57:59.199Z,97.30
2023-01-27T08:01:06.096Z,97.30
2023-01-27T08:04:08.318Z,97.30
2023-01-27T08:07:10.642Z,98.30
2023-01-27T08:10:13.307Z,97.60
2023-01-27T08:13:16.619Z,96.10
2023-01-27T08:16:18.912Z,94.50
2023-01-27T08:19:21.056Z,92.70
2023-01-27T08:22:24.021Z,90.60
2023-01-27T08:25:26.208Z,89.10
2023-01-27T08:28:31.129Z,83.50
2023-01-27T08:31:34.156Z,80.00
2023-01-27T08:34:36.648Z,78.10
2023-01-27T08:37:39.393Z,78.00
2023-01-27T08:40:42.739Z,73.40
2023-01-27T08:43:46.461Z,70.60
2023-01-27T08:46:48.762Z,71.20
2023-01-27T08:49:50.891Z,68.20
2023-01-27T08:52:53.041Z,67.40
2023-01-27T08:55:58.033Z,66.50
2023-01-27T08:59:00.482Z,63.60
2023-01-27T09:02:02.555Z,64.70
2023-01-27T09:05:05.291Z,62.80
2023-01-27T09:08:07.963Z,59.20
2023-01-27T09:11:15.838Z,56.90
2023-01-27T09:14:18.867Z,54.90
2023-01-27T09:17:21.069Z,55.00
2023-01-27T09:20:23.620Z,54.60
2023-01-27T09:23:25.878Z,54.10
2023-01-27T09:26:28.092Z,52.10
2023-01-27T09:29:31.206Z,51.70
2023-01-27T09:32:33.412Z,51.60
2023-01-27T09:35:53.788Z,51.50
2023-01-27T09:39:02.624Z,51.50
2023-01-27T09:42:20.994Z,53.00
2023-01-27T09:45:36.630Z,49.80
2023-01-27T09:48:50.613Z,50.10
2023-01-27T09:52:19.829Z,49.50
2023-01-27T09:55:40.385Z,47.80
2023-01-27T09:59:05.586Z,48.80
2023-01-27T10:02:21.471Z,46.90
2023-01-27T10:05:39.922Z,48.40
2023-01-27T10:09:08.750Z,48.70
2023-01-27T10:12:43.266Z,44.00
2023-01-27T10:16:09.568Z,44.20
2023-01-27T10:19:14.526Z,42.20
2023-01-27T10:22:51.446Z,41.10
2023-01-27T10:26:23.360Z,42.80
2023-01-27T10:29:44.711Z,40.40
2023-01-27T10:33:02.792Z,40.40
2023-01-27T10:36:34.907Z,40.50
2023-01-27T10:40:02.410Z,37.80
2023-01-27T10:43:13.693Z,37.80
2023-01-27T10:46:25.950Z,37.70
2023-01-27T10:49:53.869Z,39.50
2023-01-27T10:53:09.018Z,35.40
2023-01-27T10:56:25.976Z,38.80
2023-01-27T10:59:46.377Z,34.20
2023-01-27T11:03:21.816Z,39.30
2023-01-27T11:06:35.741Z,35.40
2023-01-27T11:09:48.756Z,36.00
2023-01-27T11:12:56.021Z,34.40
2023-01-27T11:16:01.175Z,34.20
2023-01-27T11:19:22.928Z,33.20
2023-01-27T11:22:43.323Z,34.00
2023-01-27T11:26:00.165Z,35.00
2023-01-27T11:29:10.941Z,35.40
2023-01-27T11:32:39.135Z,33.60
2023-01-27T11:35:41.349Z,34.80
2023-01-27T11:38:43.963Z,33.70
2023-01-27T11:41:55.732Z,34.30
2023-01-27T11:44:58.695Z,36.50
2023-01-27T11:48:03.165Z,36.20
2023-01-27T11:51:05.707Z,38.00
2023-01-27T11:54:25.561Z,39.70
2023-01-27T11:57:28.412Z,39.20
2023-01-27T12:00:38.706Z,38.20
2023-01-27T12:03:48.842Z,37.90
2023-01-27T12:07:00.646Z,37.50
2023-01-27T12:10:03.837Z,42.40
2023-01-27T12:13:17.812Z,46.20
2023-01-27T12:16:20.591Z,50.20
2023-01-27T12:19:32.168Z,53.30
2023-01-27T12:22:38.918Z,56.70
2023-01-27T12:25:46.528Z,60.90
2023-01-27T12:28:54.749Z,60.80
2023-01-27T12:32:00.647Z,62.30
2023-01-27T12:35:03.193Z,64.60
2023-01-27T12:38:17.270Z,65.00
2023-01-27T12:41:32.630Z,65.20
2023-01-27T12:44:43.302Z,68.10
2023-01-27T12:48:13.771Z,67.10
2023-01-27T12:51:20.230Z,69.10
2023-01-27T12:54:27.665Z,71.60
2023-01-27T12:57:33.224Z,71.90
2023-01-27T13:00:35.593Z,71.70
2023-01-27T13:03:41.116Z,71.80
2023-01-27T13:06:50.610Z,71.50
2023-01-27T13:10:02.427Z,72.20
2023-01-27T13:13:06.420Z,71.90
2023-01-27T13:16:28.760Z,72.20
2023-01-27T13:19:44.512Z,71.90
2023-01-27T13:23:03.521Z,71.90
2023-01-27T13:26:11.424Z,72.70
2023-01-27T13:29:18.235Z,72.60
2023-01-27T13:32:29.666Z,73.20
2023-01-27T13:35:37.485Z,74.00
2023-01-27T13:38:59.855Z,75.60
2023-01-27T13:42:04.646Z,75.30
2023-01-27T13:45:12.434Z,75.60
2023-01-27T13:48:23.487Z,75.40
2023-01-27T13:51:29.403Z,75.80
2023-01-27T13:54:32.541Z,76.50
2023-01-27T13:57:54.730Z,76.80
2023-01-27T14:01:10.672Z,76.90
2023-01-27T14:04:36.352Z,77.40
2023-01-27T14:08:01.562Z,78.00
2023-01-27T14:11:23.131Z,78.60
2023-01-27T14:14:58.546Z,79.10
2023-01-27T14:18:11.027Z,80.40
2023-01-27T14:22:03.384Z,82.80
2023-01-27T14:25:40.851Z,82.10
2023-01-27T14:29:04.600Z,83.10
2023-01-27T14:32:15.221Z,82.60
2023-01-27T14:35:32.051Z,81.90
2023-01-27T14:39:11.545Z,82.00
2023-01-27T14:42:17.227Z,82.70
2023-01-27T14:45:38.014Z,83.60
2023-01-27T14:49:08.992Z,84.50
2023-01-27T14:52:31.338Z,84.00
2023-01-27T14:55:44.234Z,83.60
2023-01-27T14:58:52.115Z,82.80
2023-01-27T15:02:04.068Z,82.60
2023-01-27T15:05:22.827Z,84.40
2023-01-27T15:08:30.612Z,84.20
2023-01-27T15:11:52.101Z,84.30
2023-01-27T15:15:17.848Z,84.20
2023-01-27T15:18:25.710Z,85.00
2023-01-27T15:21:49.999Z,84.40
2023-01-27T15:25:23.641Z,83.90
2023-01-27T15:28:30.685Z,83.80
2023-01-27T15:31:33.616Z,83.90
2023-01-27T15:34:35.939Z,84.20
2023-01-27T15:38:21.220Z,84.60
2023-01-27T15:41:23.535Z,84.70
2023-01-27T15:44:38.219Z,85.20
2023-01-27T15:47:41.868Z,85.90
2023-01-27T15:50:59.814Z,85.60
2023-01-27T15:54:03.191Z,85.70
2023-01-27T15:57:20.740Z,85.70
2023-01-27T16:00:31.816Z,86.10
2023-01-27T16:03:48.269Z,86.60
2023-01-27T16:07:02.768Z,87.30
2023-01-27T16:10:07.420Z,87.30
2023-01-27T16:13:23.892Z,87.60
2023-01-27T16:16:34.633Z,87.90
2023-01-27T16:19:55.798Z,88.50
2023-01-27T16:23:07.204Z,88.20
2023-01-27T16:26:18.560Z,88.50
2023-01-27T16:29:40.455Z,89.40
2023-01-27T16:32:56.806Z,89.10
2023-01-27T16:36:06.835Z,88.90
2023-01-27T16:39:46.135Z,88.90
2023-01-27T16:43:02.322Z,89.10
2023-01-27T16:46:04.921Z,89.30
2023-01-27T16:49:23.430Z,89.10
2023-01-27T16:52:41.592Z,89.40
2023-01-27T16:56:05.479Z,89.40
2023-01-27T16:59:10.419Z,89.70
2023-01-27T17:02:19.491Z,89.60
2023-01-27T17:05:22.235Z,89.90
2023-01-27T17:08:27.684Z,90.00
2023-01-27T17:11:33.162Z,90.20
2023-01-27T17:14:42.776Z,90.60
2023-01-27T17:17:45.065Z,90.60
2023-01-27T17:20:50.598Z,90.60
2023-01-27T17:23:58.771Z,90.90
2023-01-27T17:27:06.742Z,90.90
2023-01-27T17:30:12.093Z,90.80
2023-01-27T17:33:20.221Z,91.20
2023-01-27T17:36:22.341Z,91.00
2023-01-27T17:39:26.618Z,91.60
2023-01-27T17:42:34.003Z,91.80
2023-01-27T17:45:36.515Z,91.80
2023-01-27T17:48:50.613Z,92.20
2023-01-27T17:51:55.773Z,92.40
2023-01-27T17:54:59.116Z,92.10
2023-01-27T17:58:16.035Z,92.50
2023-01-27T18:01:18.633Z,92.70
2023-01-27T18:04:24.295Z,92.30
2023-01-27T18:07:28.431Z,92.20
2023-01-27T18:10:30.567Z,92.70
2023-01-27T18:13:32.569Z,92.70
2023-01-27T18:16:35.393Z,92.70
2023-01-27T18:19:37.806Z,93.30
2023-01-27T18:22:44.784Z,93.10
2023-01-27T18:25:51.345Z,93.00
2023-01-27T18:29:01.691Z,92.90
2023-01-27T18:32:19.717Z,93.30
2023-01-27T18:35:35.100Z,93.50
2023-01-27T18:38:46.176Z,93.60
2023-01-27T18:41:48.327Z,93.60
2023-01-27T18:44:52.318Z,93.80
2023-01-27T18:47:55.094Z,93.70
2023-01-27T18:50:57.167Z,93.60
2023-01-27T18:53:59.266Z,93.70
2023-01-27T18:57:01.301Z,94.00
2023-01-27T19:00:05.347Z,94.10
2023-01-27T19:03:14.719Z,94.20
2023-01-27T19:06:17.286Z,94.10
2023-01-27T19:09:19.760Z,93.90
2023-01-27T19:12:21.843Z,94.00
2023-01-27T19:15:24.821Z,94.40
2023-01-27T19:18:37.412Z,94.30
2023-01-27T19:21:39.591Z,94.20
2023-01-27T19:24:42.148Z,94.00
2023-01-27T19:27:54.170Z,94.00
2023-01-27T19:30:56.810Z,93.70
2023-01-27T19:33:59.124Z,93.80
2023-01-27T19:37:01.227Z,93.90
2023-01-27T19:40:03.423Z,94.00
2023-01-27T19:43:05.833Z,93.80
2023-01-27T19:46:15.300Z,93.80
2023-01-27T19:49:18.476Z,93.50
2023-01-27T19:52:20.667Z,93.60
2023-01-27T19:55:23.301Z,93.30
2023-01-27T19:58:27.293Z,93.50
2023-01-27T20:01:29.443Z,93.50
2023-01-27T20:04:31.915Z,93.40
2023-01-27T20:07:34.085Z,93.30
2023-01-27T20:10:36.148Z,93.10
2023-01-27T20:13:38.206Z,93.00
2023-01-27T20:16:41.150Z,93.10
2023-01-27T20:19:46.198Z,93.20
2023-01-27T20:22:49.588Z,93.00
2023-01-27T20:25:55.570Z,92.90
2023-01-27T20:28:57.709Z,92.80
2023-01-27T20:31:59.891Z,92.70
2023-01-27T20:35:02.127Z,92.70
2023-01-27T20:38:05.623Z,92.30
2023-01-27T20:41:08.853Z,92.50
2023-01-27T20:44:12.597Z,92.50
2023-01-27T20:47:16.300Z,92.40
2023-01-27T20:50:19.323Z,92.30
2023-01-27T20:53:21.455Z,92.30
2023-01-27T20:56:24.639Z,92.10
2023-01-27T20:59:26.685Z,92.10
2023-01-27T21:02:30.141Z,91.90
2023-01-27T21:05:32.351Z,91.90
2023-01-27T21:08:34.842Z,91.70
2023-01-27T21:11:38.592Z,91.50
2023-01-27T21:14:40.717Z,91.70
2023-01-27T21:17:42.782Z,91.80
2023-01-27T21:20:49.378Z,91.50
2023-01-27T21:23:51.922Z,91.70
2023-01-27T21:26:54.531Z,91.80
2023-01-27T21:29:56.911Z,91.70
2023-01-27T21:32:58.977Z,91.60
2023-01-27T21:36:01.036Z,91.70
2023-01-27T21:39:04.139Z,91.60
2023-01-27T21:42:34.997Z,91.70
2023-01-27T21:45:37.139Z,91.60
2023-01-27T21:48:39.218Z,91.60
2023-01-27T21:51:42.873Z,91.70
2023-01-27T21:54:44.902Z,91.70
2023-01-27T21:57:48.737Z,91.60
2023-01-27T22:00:50.857Z,91.80
2023-01-27T22:03:53.589Z,91.80
2023-01-27T22:06:55.722Z,91.70
2023-01-27T22:09:57.818Z,91.60
2023-01-27T22:13:03.797Z,92.30
2023-01-27T22:16:06.594Z,91.60
2023-01-27T22:19:08.894Z,91.90
2023-01-27T22:22:13.317Z,92.20
2023-01-27T22:25:18.561Z,92.00
2023-01-27T22:28:24.166Z,92.00
2023-01-27T22:31:27.349Z,92.10
2023-01-27T22:34:29.543Z,92.30
2023-01-27T22:37:33.190Z,92.10
2023-01-27T22:40:35.283Z,92.10
2023-01-27T22:43:37.338Z,92.00
2023-01-27T22:46:47.622Z,91.90
2023-01-27T22:49:49.886Z,92.00
2023-01-27T22:52:51.981Z,91.90
2023-01-27T22:55:58.457Z,91.90
2023-01-27T22:59:01.161Z,91.70
2023-01-27T23:02:03.276Z,91.70
2023-01-27T23:05:05.944Z,91.80
2023-01-27T23:08:08.035Z,91.80
2023-01-27T23:11:10.147Z,91.70
2023-01-27T23:14:12.277Z,91.60
2023-01-27T23:17:14.507Z,91.70
2023-01-27T23:20:16.822Z,91.90
2023-01-27T23:23:20.636Z,91.80
2023-01-27T23:26:22.692Z,91.60
2023-01-27T23:29:26.447Z,91.70
2023-01-27T23:32:29.287Z,91.60
2023-01-27T23:35:31.433Z,91.70
2023-01-27T23:38:34.135Z,91.70
2023-01-27T23:41:37.239Z,91.60
2023-01-27T23:44:39.275Z,91.70
2023-01-27T23:47:41.399Z,91.70
2023-01-27T23:50:43.780Z,91.60
2023-01-27T23:53:46.412Z,91.60
2023-01-27T23:56:48.466Z,91.70
2023-01-27T23:59:51.829Z,91.60
